createdAt,value
2022-10-11T00:00:44.291Z,100776.13
2022-10-11T00:03:22.512Z,100781.16
2022-10-11T00:06:03.477Z,100776.03
2022-10-11T00:08:41.999Z,100768.88
2022-10-11T00:11:20.186Z,100769.56
2022-10-11T00:14:00.488Z,100764.78
2022-10-11T00:16:42.481Z,100761.59
2022-10-11T00:19:21.653Z,100766.72
2022-10-11T00:22:01.119Z,100758.84
2022-10-11T00:24:39.206Z,100758.50
2022-10-11T00:27:17.441Z,100767.53
2022-10-11T00:29:55.607Z,100763.19
2022-10-11T00:32:36.557Z,100758.84
2022-10-11T00:35:15.283Z,100752.47
2022-10-11T00:37:52.012Z,100754.31
2022-10-11T00:40:30.558Z,100750.34
2022-10-11T00:43:20.914Z,100753.91
2022-10-11T00:46:04.652Z,100753.44
2022-10-11T00:48:48.763Z,100750.94
2022-10-11T00:54:15.527Z,100746.09
2022-10-11T00:57:03.716Z,100753.16
2022-10-11T00:59:48.419Z,100758.63
2022-10-11T01:02:28.438Z,100755.47
2022-10-11T01:05:28.114Z,100750.22
2022-10-11T01:08:08.832Z,100751.72
2022-10-11T01:10:47.679Z,100753.56
2022-10-11T01:14:06.694Z,100752.69
2022-10-11T01:22:49.375Z,100753.34
2022-10-11T01:29:07.293Z,100755.34
2022-10-11T01:32:16.748Z,100760.16
2022-10-11T01:35:20.966Z,100749.34
2022-10-11T01:38:07.850Z,100750.28
2022-10-11T01:40:53.224Z,100759.09
2022-10-11T01:43:33.755Z,100760.69
2022-10-11T01:46:14.012Z,100757.06
2022-10-11T01:48:57.354Z,100753.53
2022-10-11T01:51:42.997Z,100761.84
2022-10-11T01:57:59.439Z,100768.22
2022-10-11T02:00:57.888Z,100763.53
2022-10-11T02:04:03.284Z,100760.88
2022-10-11T02:07:08.328Z,100762.84
2022-10-11T02:10:11.856Z,100764.34
2022-10-11T02:13:01.074Z,100757.97
2022-10-11T02:15:43.464Z,100766.88
2022-10-11T02:18:27.967Z,100775.09
2022-10-11T02:21:10.805Z,100763.22
2022-10-11T02:23:55.641Z,100766.66
2022-10-11T02:26:34.791Z,100768.91
2022-10-11T02:29:16.530Z,100771.66
2022-10-11T02:31:58.851Z,100764.72
2022-10-11T02:34:45.450Z,100769.28
2022-10-11T02:42:51.748Z,100764.38
2022-10-11T02:45:36.521Z,100760.03
2022-10-11T02:48:16.132Z,100764.38
2022-10-11T02:50:56.358Z,100759.69
2022-10-11T02:53:34.554Z,100756.72
2022-10-11T02:56:13.683Z,100754.78
2022-10-11T02:58:52.445Z,100754.78
2022-10-11T03:01:30.846Z,100752.84
2022-10-11T03:04:09.477Z,100752.16
2022-10-11T03:06:49.774Z,100748.97
2022-10-11T03:09:28.609Z,100750.91
2022-10-11T03:12:08.515Z,100745.06
2022-10-11T03:14:46.616Z,100743.13
2022-10-11T03:17:36.005Z,100745.88
2022-10-11T03:20:16.935Z,100747.81
2022-10-11T03:22:56.038Z,100740.38
2022-10-11T03:25:35.893Z,100742.69
2022-10-11T03:28:15.228Z,100746.66
2022-10-11T03:30:53.868Z,100743.50
2022-10-11T03:33:33.738Z,100739.25
2022-10-11T03:36:14.294Z,100735.81
2022-10-11T03:38:53.734Z,100735.81
2022-10-11T03:41:32.780Z,100738.56
2022-10-11T03:44:12.935Z,100724.09
2022-10-11T03:46:52.526Z,100721.69
2022-10-11T03:49:32.983Z,100725.56
2022-10-11T03:52:12.152Z,100716.88
2022-10-11T03:54:51.605Z,100725.56
2022-10-11T03:57:30.953Z,100721.22
2022-10-11T04:00:10.135Z,100728.63
2022-10-11T04:02:49.950Z,100720.78
2022-10-11T04:05:30.729Z,100724.31
2022-10-11T04:08:12.188Z,100730.56
2022-10-11T04:10:53.011Z,100735.72
2022-10-11T04:13:31.793Z,100728.28
2022-10-11T04:16:10.974Z,100735.03
2022-10-11T04:18:49.968Z,100744.50
2022-10-11T04:21:29.011Z,100730.56
2022-10-11T04:24:07.997Z,100736.84
2022-10-11T04:26:47.651Z,100739.56
2022-10-11T04:29:31.447Z,100730.66
2022-10-11T04:32:13.062Z,100733.84
2022-10-11T04:34:51.861Z,100745.25
2022-10-11T04:37:31.195Z,100746.50
2022-10-11T04:40:10.608Z,100737.13
2022-10-11T04:42:52.118Z,100740.34
2022-10-11T04:45:31.553Z,100737.00
2022-10-11T04:48:10.757Z,100743.72
2022-10-11T04:50:50.122Z,100745.41
2022-10-11T04:53:28.880Z,100744.72
2022-10-11T04:56:11.971Z,100747.56
2022-10-11T04:58:52.196Z,100744.13
2022-10-11T05:01:31.440Z,100747.31
2022-10-11T05:04:10.284Z,100743.88
2022-10-11T05:06:49.411Z,100742.03
2022-10-11T05:09:27.674Z,100745.66
2022-10-11T05:12:06.565Z,100745.84
2022-10-11T05:14:45.575Z,100746.41
2022-10-11T05:17:23.797Z,100742.59
2022-10-11T05:20:02.484Z,100735.72
2022-10-11T05:22:41.813Z,100735.88
2022-10-11T05:25:20.034Z,100731.31
2022-10-11T05:27:58.647Z,100732.19
2022-10-11T05:30:37.995Z,100726.88
2022-10-11T05:33:16.321Z,100726.69
2022-10-11T05:35:54.715Z,100732.38
2022-10-11T05:38:34.411Z,100738.50
2022-10-11T05:41:15.563Z,100737.16
2022-10-11T05:43:53.842Z,100733.78
2022-10-11T05:46:33.439Z,100750.06
2022-10-11T05:49:10.209Z,100743.59
2022-10-11T05:51:49.293Z,100741.00
2022-10-11T05:54:31.253Z,100747.03
2022-10-11T05:57:10.176Z,100739.72
2022-10-11T05:59:50.480Z,100739.97
2022-10-11T06:02:29.741Z,100737.81
2022-10-11T06:05:10.431Z,100728.22
2022-10-11T06:07:48.917Z,100726.03
2022-10-11T06:10:28.467Z,100722.72
2022-10-11T06:13:07.895Z,100727.25
2022-10-11T06:16:13.706Z,100726.69
2022-10-11T06:19:24.667Z,100724.91
2022-10-11T06:22:32.450Z,100715.72
2022-10-11T06:25:24.373Z,100720.19
2022-10-11T06:28:20.493Z,100710.16
2022-10-11T06:31:18.731Z,100713.88
2022-10-11T06:34:12.325Z,100713.72
2022-10-11T06:37:16.395Z,100715.41
2022-10-11T06:40:12.533Z,100705.34
2022-10-11T06:43:09.481Z,100708.66
2022-10-11T06:46:07.887Z,100695.47
2022-10-11T06:49:07.200Z,100700.28
2022-10-11T06:51:59.372Z,100699.28
2022-10-11T06:54:56.581Z,100699.00
2022-10-11T06:57:49.389Z,100696.84
2022-10-11T07:01:03.731Z,100695.03
2022-10-11T07:03:58.267Z,100690.03
2022-10-11T07:06:51.168Z,100696.03
2022-10-11T07:09:43.769Z,100691.06
2022-10-11T07:12:11.187Z,100688.47
2022-10-11T07:14:38.606Z,100681.13
2022-10-11T07:17:06.068Z,100680.00
2022-10-11T07:19:33.774Z,100684.06
2022-10-11T07:22:01.378Z,100682.59
2022-10-11T07:24:28.947Z,100681.50
2022-10-11T07:26:56.592Z,100677.69
2022-10-11T07:29:24.184Z,100673.44
2022-10-11T07:31:51.693Z,100679.06
2022-10-11T07:34:21.083Z,100675.94
2022-10-11T07:36:48.661Z,100679.59
2022-10-11T07:39:15.965Z,100678.84
2022-10-11T07:41:45.945Z,100670.22
2022-10-11T07:44:14.692Z,100667.09
2022-10-11T07:46:42.681Z,100665.19
2022-10-11T07:49:10.004Z,100656.53
2022-10-11T07:51:37.400Z,100660.88
2022-10-11T07:54:07.446Z,100663.69
2022-10-11T07:56:35.170Z,100659.38
2022-10-11T07:59:06.074Z,100652.66
2022-10-11T08:01:33.619Z,100647.13
2022-10-11T08:04:01.119Z,100645.16
2022-10-11T08:06:32.853Z,100649.53
2022-10-11T08:09:02.251Z,100648.34
2022-10-11T08:11:33.690Z,100643.56
2022-10-11T08:14:02.009Z,100641.59
2022-10-11T08:16:29.448Z,100639.22
2022-10-11T08:18:57.335Z,100632.88
2022-10-11T08:21:26.587Z,100636.03
2022-10-11T08:23:53.981Z,100639.19
2022-10-11T08:26:21.897Z,100634.00
2022-10-11T08:28:49.617Z,100629.66
2022-10-11T08:31:17.459Z,100629.25
2022-10-11T08:33:44.970Z,100622.47
2022-10-11T08:36:13.758Z,100625.22
2022-10-11T08:38:41.867Z,100620.47
2022-10-11T08:47:23.897Z,100614.41
2022-10-11T08:49:51.842Z,100616.72
2022-10-11T08:52:24.442Z,100611.03
2022-10-11T08:54:58.534Z,100606.16
2022-10-11T08:57:29.883Z,100606.91
2022-10-11T08:59:59.882Z,100603.00
2022-10-11T09:05:31.495Z,100602.63
2022-10-11T09:08:22.775Z,100599.84
2022-10-11T09:22:01.082Z,100580.84
2022-10-11T09:30:16.744Z,100587.03
2022-10-11T09:32:51.992Z,100581.06
2022-10-11T09:35:22.359Z,100575.78
2022-10-11T09:38:01.342Z,100565.06
2022-10-11T09:41:08.380Z,100558.00
2022-10-11T09:43:35.880Z,100560.81
2022-10-11T09:46:03.596Z,100555.88
2022-10-11T09:48:41.658Z,100553.63
2022-10-11T09:51:17.456Z,100543.97
2022-10-11T09:53:56.276Z,100539.97
2022-10-11T09:56:26.949Z,100540.38
2022-10-11T10:07:32.968Z,100533.75
2022-10-11T10:10:29.281Z,100537.44
2022-10-11T10:13:00.383Z,100529.81
2022-10-11T10:15:38.441Z,100529.44
2022-10-11T10:18:10.705Z,100533.81
2022-10-11T10:20:38.660Z,100527.44
2022-10-11T10:23:26.976Z,100521.88
2022-10-11T10:26:18.641Z,100515.50
2022-10-11T10:32:13.408Z,100510.63
2022-10-11T10:35:03.187Z,100519.34
2022-10-11T10:37:39.901Z,100507.00
2022-10-11T10:40:16.380Z,100514.16
2022-10-11T10:42:43.782Z,100503.41
2022-10-11T10:45:21.385Z,100505.78
2022-10-11T10:50:58.727Z,100501.03
2022-10-11T10:53:38.571Z,100499.34
2022-10-11T10:56:12.790Z,100488.97
2022-10-11T11:01:39.296Z,100484.78
2022-10-11T11:04:31.014Z,100483.91
2022-10-11T11:07:27.195Z,100480.97
2022-10-11T11:10:04.015Z,100482.94
2022-10-11T11:18:18.515Z,100479.81
2022-10-11T11:26:47.268Z,100471.19
2022-10-11T11:29:40.190Z,100471.59
2022-10-11T11:34:49.990Z,100468.31
2022-10-11T11:40:05.562Z,100463.47
2022-10-11T11:42:49.007Z,100458.00
2022-10-11T11:48:03.008Z,100458.88
2022-10-11T11:50:37.539Z,100457.28
2022-10-11T11:53:12.510Z,100457.75
2022-10-11T11:56:15.308Z,100452.50
2022-10-11T11:58:53.787Z,100453.19
2022-10-11T12:04:41.259Z,100445.34
2022-10-11T12:09:52.804Z,100450.88
2022-10-11T12:20:39.050Z,100433.44
2022-10-11T12:29:29.065Z,100433.53
2022-10-11T12:39:58.494Z,100421.59
2022-10-11T12:45:29.644Z,100416.81
2022-10-11T12:48:23.180Z,100415.28
2022-10-11T12:54:26.058Z,100400.88
2022-10-11T12:57:14.458Z,100401.78
2022-10-11T12:59:45.142Z,100398.72
2022-10-11T13:05:09.329Z,100400.00
2022-10-11T13:07:37.123Z,100402.84
2022-10-11T13:10:06.360Z,100397.41
2022-10-11T13:12:42.277Z,100398.66
2022-10-11T13:15:15.993Z,100404.97
2022-10-11T13:17:43.880Z,100402.22
2022-10-11T13:22:53.356Z,100400.69
2022-10-11T13:25:24.475Z,100394.44
2022-10-11T13:27:54.372Z,100396.47
2022-10-11T13:30:29.228Z,100399.69
2022-10-11T13:32:58.087Z,100394.19
2022-10-11T13:38:08.304Z,100401.81
2022-10-11T13:40:36.904Z,100389.22
2022-10-11T13:43:06.550Z,100392.41
2022-10-11T13:45:37.219Z,100394.47
2022-10-11T13:48:05.329Z,100397.69
2022-10-11T13:50:34.725Z,100400.88
2022-10-11T13:53:21.653Z,100394.56
2022-10-11T13:56:00.311Z,100399.41
2022-10-11T14:01:28.112Z,100393.53
2022-10-11T14:04:00.661Z,100395.94
2022-10-11T14:06:53.167Z,100399.13
2022-10-11T14:09:28.018Z,100394.81
2022-10-11T14:11:56.474Z,100398.47
2022-10-11T14:14:42.466Z,100409.59
2022-10-11T14:20:25.150Z,100407.72
2022-10-11T14:22:55.429Z,100410.13
2022-10-11T14:25:23.397Z,100412.91
2022-10-11T14:27:51.500Z,100404.25
2022-10-11T14:30:26.511Z,100415.34
2022-10-11T14:32:57.564Z,100412.19
2022-10-11T14:35:32.532Z,100412.97
2022-10-11T14:38:01.016Z,100411.75
2022-10-11T14:40:31.277Z,100413.75
2022-10-11T14:42:59.525Z,100419.25
2022-10-11T14:45:27.564Z,100421.97
2022-10-11T14:47:56.925Z,100423.16
2022-10-11T14:50:48.647Z,100420.81
2022-10-11T14:53:17.005Z,100423.91
2022-10-11T14:55:45.589Z,100423.91
2022-10-11T14:58:16.476Z,100434.91
2022-10-11T15:00:45.543Z,100421.44
2022-10-11T15:03:19.992Z,100420.19
2022-10-11T15:05:51.123Z,100426.81
2022-10-11T15:08:19.237Z,100422.06
2022-10-11T15:10:46.916Z,100425.13
2022-10-11T15:13:14.947Z,100433.78
2022-10-11T15:15:43.088Z,100435.72
2022-10-11T15:18:17.055Z,100434.44
2022-10-11T15:20:46.910Z,100441.47
2022-10-11T15:23:15.010Z,100444.59
2022-10-11T15:25:43.178Z,100444.16
2022-10-11T15:28:22.212Z,100442.56
2022-10-11T15:30:49.930Z,100443.72
2022-10-11T15:33:17.662Z,100438.56
2022-10-11T15:35:45.431Z,100446.81
2022-10-11T15:38:20.403Z,100441.28
2022-10-11T15:40:49.421Z,100440.81
2022-10-11T15:43:20.764Z,100445.47
2022-10-11T15:45:51.285Z,100443.44
2022-10-11T15:48:20.135Z,100437.41
2022-10-11T15:50:48.379Z,100432.97
2022-10-11T15:53:19.460Z,100437.66
2022-10-11T15:55:51.162Z,100434.81
2022-10-11T15:58:24.309Z,100432.75
2022-10-11T16:00:54.527Z,100431.94
2022-10-11T16:03:25.793Z,100436.22
2022-10-11T16:06:05.226Z,100435.47
2022-10-11T16:08:40.349Z,100435.00
2022-10-11T16:11:10.741Z,100431.03
2022-10-11T16:13:38.511Z,100435.72
2022-10-11T16:16:08.945Z,100435.00
2022-10-11T16:18:37.329Z,100428.38
2022-10-11T16:21:09.366Z,100434.28
2022-10-11T16:23:37.406Z,100433.44
2022-10-11T16:26:08.535Z,100433.03
2022-10-11T16:28:36.776Z,100430.22
2022-10-11T16:31:09.502Z,100432.94
2022-10-11T16:33:46.345Z,100432.91
2022-10-11T16:36:36.297Z,100430.13
2022-10-11T16:39:07.205Z,100431.66
2022-10-11T16:41:34.849Z,100430.84
2022-10-11T16:44:02.702Z,100439.13
2022-10-11T16:46:31.720Z,100436.75
2022-10-11T16:49:07.988Z,100430.81
2022-10-11T16:51:40.704Z,100433.16
2022-10-11T16:54:08.319Z,100442.56
2022-10-11T16:56:39.924Z,100440.53
2022-10-11T16:59:08.841Z,100438.97
2022-10-11T17:01:37.149Z,100429.78
2022-10-11T17:04:05.417Z,100432.47
2022-10-11T17:06:33.328Z,100431.25
2022-10-11T17:09:01.124Z,100428.00
2022-10-11T17:11:28.920Z,100426.81
2022-10-11T17:13:56.674Z,100425.22
2022-10-11T17:16:24.375Z,100422.88
2022-10-11T17:18:52.102Z,100424.34
2022-10-11T17:21:21.602Z,100423.06
2022-10-11T17:23:49.727Z,100420.28
2022-10-11T17:26:32.120Z,100419.44
2022-10-11T17:29:17.475Z,100419.78
2022-10-11T17:31:49.238Z,100420.50
2022-10-11T17:34:17.677Z,100420.06
2022-10-11T17:36:45.362Z,100421.19
2022-10-11T17:39:16.181Z,100423.53
2022-10-11T17:41:44.616Z,100419.50
2022-10-11T17:44:13.447Z,100414.66
2022-10-11T17:46:41.024Z,100415.78
2022-10-11T17:49:09.418Z,100413.63
2022-10-11T17:51:37.857Z,100416.72
2022-10-11T17:54:06.448Z,100409.63
2022-10-11T17:56:37.971Z,100402.53
2022-10-11T17:59:06.263Z,100413.53
2022-10-11T18:01:34.506Z,100409.63
2022-10-11T18:04:04.857Z,100406.50
2022-10-11T18:06:38.845Z,100402.84
2022-10-11T18:09:06.475Z,100401.50
2022-10-11T18:11:34.222Z,100406.22
2022-10-11T18:14:02.070Z,100403.47
2022-10-11T18:16:31.483Z,100396.03
2022-10-11T18:19:02.258Z,100392.91
2022-10-11T18:21:34.725Z,100390.16
2022-10-11T18:24:05.308Z,100387.78
2022-10-11T18:26:33.464Z,100395.16
2022-10-11T18:29:01.877Z,100390.41
2022-10-11T18:31:31.522Z,100387.63
2022-10-11T18:34:00.126Z,100391.06
2022-10-11T18:36:30.029Z,100398.09
2022-10-11T18:39:01.746Z,100387.84
2022-10-11T18:41:32.135Z,100394.88
2022-10-11T18:44:02.723Z,100393.66
2022-10-11T18:46:31.443Z,100391.22
2022-10-11T18:49:01.632Z,100393.09
2022-10-11T18:51:32.799Z,100398.50
2022-10-11T18:54:01.094Z,100392.59
2022-10-11T18:56:31.185Z,100390.16
2022-10-11T18:58:59.947Z,100385.72
2022-10-11T19:01:31.115Z,100379.22
2022-10-11T19:04:01.109Z,100378.69
2022-10-11T19:06:33.536Z,100378.19
2022-10-11T19:09:09.630Z,100381.31
2022-10-11T19:11:38.129Z,100375.84
2022-10-11T19:14:08.802Z,100371.84
2022-10-11T19:16:39.980Z,100368.69
2022-10-11T19:19:09.849Z,100377.50
2022-10-11T19:21:38.556Z,100369.84
2022-10-11T19:24:06.746Z,100372.47
2022-10-11T19:26:37.396Z,100368.47
2022-10-11T19:29:12.122Z,100373.59
2022-10-11T19:31:43.771Z,100376.00
2022-10-11T19:34:12.301Z,100366.59
2022-10-11T19:36:43.031Z,100365.38
2022-10-11T19:39:15.137Z,100367.25
2022-10-11T19:41:44.241Z,100374.19
2022-10-11T19:44:13.307Z,100371.66
2022-10-11T19:46:51.563Z,100379.16
2022-10-11T19:49:25.333Z,100370.03
2022-10-11T19:51:55.681Z,100367.66
2022-10-11T19:54:23.646Z,100373.94
2022-10-11T19:56:51.335Z,100367.28
2022-10-11T19:59:19.013Z,100364.53
2022-10-11T20:01:51.991Z,100370.75
2022-10-11T20:07:09.008Z,100375.56
2022-10-11T20:09:37.003Z,100366.63
2022-10-11T20:12:05.209Z,100368.50
2022-10-11T20:14:32.907Z,100368.41
2022-10-11T20:17:00.574Z,100363.72
2022-10-11T20:19:31.133Z,100359.03
2022-10-11T20:22:00.702Z,100356.50
2022-10-11T20:24:33.415Z,100350.13
2022-10-11T20:27:04.101Z,100354.72
2022-10-11T20:29:31.622Z,100349.19
2022-10-11T20:31:59.364Z,100350.69
2022-10-11T20:34:27.982Z,100348.03
2022-10-11T20:36:55.729Z,100339.06
2022-10-11T20:39:23.988Z,100340.13
2022-10-11T20:41:51.520Z,100339.06
2022-10-11T20:44:19.187Z,100343.91
2022-10-11T20:46:46.727Z,100339.28
2022-10-11T20:49:14.228Z,100335.00
2022-10-11T20:51:42.979Z,100332.94
2022-10-11T20:54:11.135Z,100336.31
2022-10-11T20:56:39.661Z,100339.75
2022-10-11T20:59:08.243Z,100347.97
2022-10-11T21:01:38.711Z,100345.22
2022-10-11T21:04:08.588Z,100349.13
2022-10-11T21:06:36.025Z,100347.88
2022-10-11T21:09:03.508Z,100343.91
2022-10-11T21:11:33.663Z,100346.56
2022-10-11T21:14:03.906Z,100347.19
2022-10-11T21:16:32.472Z,100337.63
2022-10-11T21:19:01.970Z,100338.28
2022-10-11T21:21:30.322Z,100340.22
2022-10-11T21:24:00.159Z,100337.81
2022-10-11T21:26:28.401Z,100346.41
2022-10-11T21:28:55.792Z,100350.69
2022-10-11T21:31:23.854Z,100341.69
2022-10-11T21:33:51.404Z,100339.75
2022-10-11T21:36:22.201Z,100340.22
2022-10-11T21:38:52.329Z,100332.00
2022-10-11T21:41:22.627Z,100330.41
2022-10-11T21:43:50.442Z,100339.66
2022-10-11T21:48:56.286Z,100341.06
2022-10-11T21:51:26.612Z,100336.38
2022-10-11T21:53:55.295Z,100341.78
2022-10-11T21:56:22.802Z,100347.06
2022-10-11T21:58:51.192Z,100353.59
2022-10-11T22:01:19.714Z,100346.78
2022-10-11T22:03:47.704Z,100343.50
2022-10-11T22:06:15.629Z,100335.75
2022-10-11T22:08:43.207Z,100342.44
2022-10-11T22:11:11.750Z,100340.50
2022-10-11T22:13:39.222Z,100331.97
2022-10-11T22:16:09.254Z,100335.94
2022-10-11T22:18:36.968Z,100326.91
2022-10-11T22:23:43.305Z,100329.66
2022-10-11T22:26:14.705Z,100330.47
2022-10-11T22:28:42.843Z,100320.66
2022-10-11T22:31:11.361Z,100322.59
2022-10-11T22:33:39.327Z,100321.81
2022-10-11T22:36:09.989Z,100325.16
2022-10-11T22:38:40.314Z,100321.63
2022-10-11T22:41:08.398Z,100322.88
2022-10-11T22:43:35.862Z,100323.31
2022-10-11T22:46:03.526Z,100320.38
2022-10-11T22:48:31.219Z,100327.72
2022-10-11T22:50:58.705Z,100322.91
2022-10-11T22:53:26.183Z,100322.81
2022-10-11T22:55:54.031Z,100320.69
2022-10-11T22:58:21.687Z,100320.97
2022-10-11T23:00:51.561Z,100316.72
2022-10-11T23:03:19.837Z,100319.13
2022-10-11T23:05:56.627Z,100318.09
2022-10-11T23:08:24.690Z,100322.34
2022-10-11T23:10:52.691Z,100314.06
2022-10-11T23:13:20.647Z,100323.06
2022-10-11T23:15:48.645Z,100321.09
2022-10-11T23:18:18.749Z,100318.88
2022-10-11T23:20:46.069Z,100315.72
2022-10-11T23:23:13.494Z,100316.31
2022-10-11T23:25:40.852Z,100319.94
2022-10-11T23:28:08.218Z,100313.44
2022-10-11T23:30:35.596Z,100313.09
2022-10-11T23:33:02.979Z,100306.72
2022-10-11T23:35:30.309Z,100308.31
2022-10-11T23:37:57.943Z,100290.44
2022-10-11T23:40:25.337Z,100301.38
2022-10-11T23:42:52.575Z,100295.09
2022-10-11T23:45:19.997Z,100300.56
2022-10-11T23:47:47.325Z,100296.69
2022-10-11T23:50:14.802Z,100304.56
2022-10-11T23:52:42.204Z,100290.53
2022-10-11T23:55:09.807Z,100295.19
2022-10-11T23:57:38.450Z,100291.69
